createdAt,value
2022-12-16T00:01:27.259Z,22.27
2022-12-16T00:03:56.384Z,23.23
2022-12-16T00:06:25.986Z,22.85
2022-12-16T00:08:52.836Z,22.33
2022-12-16T00:11:20.581Z,23.13
2022-12-16T00:13:47.601Z,19.42
2022-12-16T00:16:17.411Z,21.73
2022-12-16T00:18:45.508Z,20.25
2022-12-16T00:21:12.944Z,19.45
2022-12-16T00:23:41.767Z,19.70
2022-12-16T00:26:09.290Z,17.58
2022-12-16T00:28:36.772Z,16.40
2022-12-16T00:31:04.016Z,17.02
2022-12-16T00:33:31.336Z,16.75
2022-12-16T00:35:58.112Z,16.20
2022-12-16T00:38:26.454Z,17.65
2022-12-16T00:40:53.160Z,16.52
2022-12-16T00:43:20.565Z,16.95
2022-12-16T00:45:48.542Z,17.05
2022-12-16T00:48:15.620Z,17.08
2022-12-16T00:50:48.786Z,16.90
2022-12-16T00:53:15.420Z,17.02
2022-12-16T00:55:42.288Z,17.52
2022-12-16T00:58:09.213Z,17.23
2022-12-16T01:00:35.931Z,18.05
2022-12-16T01:03:02.659Z,18.23
2022-12-16T01:05:29.868Z,17.95
2022-12-16T01:07:57.063Z,17.85
2022-12-16T01:10:24.968Z,18.17
2022-12-16T01:12:51.948Z,18.42
2022-12-16T01:15:19.133Z,19.17
2022-12-16T01:17:46.071Z,19.25
2022-12-16T01:20:13.311Z,19.30
2022-12-16T01:22:40.020Z,19.05
2022-12-16T01:25:07.044Z,19.20
2022-12-16T01:27:33.811Z,19.70
2022-12-16T01:30:00.520Z,19.17
2022-12-16T01:32:27.156Z,18.83
2022-12-16T01:34:55.706Z,18.90
2022-12-16T01:37:23.646Z,19.50
2022-12-16T01:39:50.828Z,19.77
2022-12-16T01:42:20.663Z,19.45
2022-12-16T01:44:49.790Z,19.13
2022-12-16T01:47:27.872Z,19.00
2022-12-16T01:50:01.181Z,20.70
2022-12-16T01:52:36.165Z,19.77
2022-12-16T01:55:20.528Z,19.02
2022-12-16T01:58:07.592Z,18.08
2022-12-16T02:00:37.337Z,17.77
2022-12-16T02:03:04.940Z,17.30
2022-12-16T02:05:34.371Z,17.05
2022-12-16T02:08:02.556Z,16.67
2022-12-16T02:10:34.014Z,18.38
2022-12-16T02:13:25.666Z,17.77
2022-12-16T02:15:52.837Z,17.48
2022-12-16T02:18:49.762Z,18.25
2022-12-16T02:21:31.904Z,17.42
2022-12-16T02:24:26.221Z,17.13
2022-12-16T02:27:22.396Z,18.27
2022-12-16T02:30:04.597Z,17.60
2022-12-16T02:32:51.436Z,17.67
2022-12-16T02:35:41.862Z,17.67
2022-12-16T02:38:34.727Z,18.38
2022-12-16T02:41:04.514Z,19.92
2022-12-16T02:43:51.877Z,19.85
2022-12-16T02:46:23.865Z,20.08
2022-12-16T02:48:50.553Z,19.70
2022-12-16T02:51:18.084Z,19.33
2022-12-16T02:53:46.640Z,18.67
2022-12-16T02:56:39.240Z,18.45
2022-12-16T02:59:16.986Z,17.63
2022-12-16T03:01:52.710Z,18.60
2022-12-16T03:04:41.455Z,17.80
2022-12-16T03:07:13.240Z,18.08
2022-12-16T03:09:42.059Z,22.00
2022-12-16T03:12:13.241Z,19.15
2022-12-16T03:14:44.001Z,18.17
2022-12-16T03:17:12.800Z,18.73
2022-12-16T03:19:41.628Z,18.83
2022-12-16T03:22:16.394Z,18.77
2022-12-16T03:24:43.334Z,19.67
2022-12-16T03:27:13.619Z,20.73
2022-12-16T03:29:55.696Z,21.15
2022-12-16T03:32:28.984Z,21.13
2022-12-16T03:35:01.821Z,22.23
2022-12-16T03:37:33.785Z,22.13
2022-12-16T03:40:03.248Z,23.58
2022-12-16T03:42:30.633Z,25.00
2022-12-16T03:44:57.564Z,26.92
2022-12-16T03:47:27.862Z,22.67
2022-12-16T03:49:54.552Z,22.33
2022-12-16T03:52:21.719Z,22.73
2022-12-16T03:54:48.341Z,22.98
2022-12-16T03:57:15.749Z,22.27
2022-12-16T03:59:43.173Z,22.75
2022-12-16T04:02:10.167Z,21.73
2022-12-16T04:04:37.015Z,21.02
2022-12-16T04:07:21.849Z,21.08
2022-12-16T04:09:49.701Z,19.73
2022-12-16T04:12:35.399Z,18.58
2022-12-16T04:15:20.812Z,17.75
2022-12-16T04:18:06.227Z,17.17
2022-12-16T04:20:55.208Z,17.10
2022-12-16T04:23:42.498Z,16.40
2022-12-16T04:26:09.517Z,17.90
2022-12-16T04:28:36.339Z,16.88
2022-12-16T04:31:03.743Z,17.77
2022-12-16T04:33:50.351Z,18.30
2022-12-16T04:36:35.473Z,17.27
2022-12-16T04:39:20.879Z,17.30
2022-12-16T04:42:06.119Z,17.15
2022-12-16T04:44:51.499Z,19.10
2022-12-16T04:47:37.008Z,20.05
2022-12-16T04:50:22.769Z,20.75
2022-12-16T04:53:11.537Z,18.60
2022-12-16T04:56:03.601Z,18.33
2022-12-16T04:58:49.651Z,19.65
2022-12-16T05:01:34.889Z,19.38
2022-12-16T05:04:20.331Z,19.38
2022-12-16T05:07:05.596Z,19.20
2022-12-16T05:09:50.762Z,20.10
2022-12-16T05:12:36.152Z,17.98
2022-12-16T05:15:21.688Z,21.25
2022-12-16T05:18:07.025Z,40.58
2022-12-16T05:20:52.499Z,34.95
2022-12-16T05:23:38.404Z,24.55
2022-12-16T05:26:23.656Z,29.55
2022-12-16T05:29:09.211Z,26.27
2022-12-16T05:31:54.316Z,49.60
2022-12-16T05:34:39.590Z,115.85
2022-12-16T05:37:25.291Z,94.25
2022-12-16T05:40:10.583Z,84.93
2022-12-16T05:42:55.753Z,54.53
2022-12-16T05:45:41.512Z,31.42
2022-12-16T05:48:26.929Z,23.95
2022-12-16T05:51:12.103Z,19.80
2022-12-16T05:53:57.506Z,20.05
2022-12-16T05:56:42.762Z,28.00
2022-12-16T05:59:28.238Z,33.15
2022-12-16T06:02:13.645Z,24.08
2022-12-16T06:04:59.312Z,20.80
2022-12-16T06:07:44.561Z,26.92
2022-12-16T06:10:29.985Z,39.45
2022-12-16T06:13:15.418Z,42.53
2022-12-16T06:16:06.742Z,26.77
2022-12-16T06:18:53.902Z,25.15
2022-12-16T06:21:39.568Z,23.13
2022-12-16T06:24:25.343Z,21.17
2022-12-16T06:27:10.460Z,21.40
2022-12-16T06:29:55.920Z,20.98
2022-12-16T06:32:41.363Z,21.55
2022-12-16T06:35:27.340Z,20.13
2022-12-16T06:38:12.799Z,25.27
2022-12-16T06:40:57.907Z,29.00
2022-12-16T06:43:43.137Z,36.42
2022-12-16T06:46:28.495Z,40.03
2022-12-16T06:49:13.866Z,37.03
2022-12-16T06:51:59.118Z,27.48
2022-12-16T06:54:44.395Z,24.92
2022-12-16T06:57:29.478Z,22.23
2022-12-16T07:00:14.821Z,21.33
2022-12-16T07:03:00.558Z,22.17
2022-12-16T07:05:46.066Z,24.30
2022-12-16T07:08:31.343Z,25.17
2022-12-16T07:11:17.500Z,25.58
2022-12-16T07:14:03.861Z,27.02
2022-12-16T07:16:49.321Z,28.95
2022-12-16T07:19:34.909Z,26.98
2022-12-16T07:22:20.209Z,28.35
2022-12-16T07:25:05.342Z,27.63
2022-12-16T07:27:50.451Z,29.38
2022-12-16T07:30:35.764Z,24.05
2022-12-16T07:33:21.069Z,22.85
2022-12-16T07:36:06.358Z,21.52
2022-12-16T07:38:51.824Z,24.17
2022-12-16T07:41:36.991Z,24.23
2022-12-16T07:44:22.830Z,23.58
2022-12-16T07:47:07.989Z,21.40
2022-12-16T07:49:53.682Z,22.10
2022-12-16T07:52:40.958Z,21.00
2022-12-16T07:55:26.490Z,27.30
2022-12-16T07:58:12.019Z,26.80
2022-12-16T08:00:58.062Z,26.52
2022-12-16T08:03:43.312Z,27.13
2022-12-16T08:06:28.597Z,29.92
2022-12-16T08:09:14.064Z,37.33
2022-12-16T08:11:59.363Z,34.40
2022-12-16T08:14:44.838Z,39.08
2022-12-16T08:17:30.141Z,35.35
2022-12-16T08:20:15.669Z,34.17
2022-12-16T08:23:00.945Z,37.53
2022-12-16T08:25:48.350Z,35.22
2022-12-16T08:28:33.810Z,31.50
2022-12-16T08:31:19.105Z,34.78
2022-12-16T08:34:04.306Z,35.65
2022-12-16T08:36:49.535Z,35.17
2022-12-16T08:39:34.768Z,39.67
2022-12-16T08:42:19.983Z,38.28
2022-12-16T08:45:05.204Z,39.30
2022-12-16T08:47:50.426Z,41.70
2022-12-16T08:50:35.811Z,65.32
2022-12-16T08:53:22.813Z,51.53
2022-12-16T08:56:08.085Z,48.30
2022-12-16T08:58:54.317Z,234.38
2022-12-16T09:01:41.296Z,46.08
2022-12-16T09:04:26.575Z,50.30
2022-12-16T09:07:11.970Z,54.03
2022-12-16T09:09:57.109Z,308.67
2022-12-16T09:15:28.517Z,347.50
2022-12-16T09:18:14.631Z,268.00
2022-12-16T09:21:00.726Z,140.05
2022-12-16T09:23:46.352Z,127.82
2022-12-16T09:26:31.775Z,132.55
2022-12-16T09:29:17.406Z,85.00
2022-12-16T09:32:02.451Z,77.53
2022-12-16T09:34:48.391Z,72.38
2022-12-16T09:37:33.563Z,63.63
2022-12-16T09:40:18.715Z,60.90
2022-12-16T09:46:07.709Z,56.05
2022-12-16T09:48:59.575Z,52.42
2022-12-16T09:51:45.737Z,59.42
2022-12-16T09:54:35.456Z,60.30
2022-12-16T09:57:23.151Z,63.92
2022-12-16T10:00:30.759Z,67.65
2022-12-16T10:03:18.346Z,75.07
2022-12-16T10:06:20.180Z,76.47
2022-12-16T10:09:34.414Z,81.20
2022-12-16T10:12:49.391Z,79.20
2022-12-16T10:15:51.341Z,80.15
2022-12-16T10:19:08.715Z,81.38
2022-12-16T10:22:25.400Z,83.95
2022-12-16T10:25:21.725Z,81.32
2022-12-16T10:28:14.994Z,80.53
2022-12-16T10:31:00.384Z,80.65
2022-12-16T10:33:47.839Z,81.40
2022-12-16T10:36:37.233Z,84.70
2022-12-16T10:39:39.945Z,81.22
2022-12-16T10:42:37.010Z,76.65
2022-12-16T10:45:23.424Z,71.90
2022-12-16T10:48:09.391Z,68.60
2022-12-16T10:50:54.974Z,66.43
2022-12-16T10:53:45.408Z,60.17
2022-12-16T10:56:56.212Z,66.18
2022-12-16T10:59:43.031Z,63.35
2022-12-16T11:02:40.007Z,58.55
2022-12-16T11:05:46.838Z,52.33
2022-12-16T11:08:51.668Z,49.42
2022-12-16T11:11:46.601Z,48.33
2022-12-16T11:14:40.115Z,52.35
2022-12-16T11:17:44.297Z,50.17
2022-12-16T11:20:37.563Z,48.45
2022-12-16T11:23:41.176Z,49.85
2022-12-16T11:26:33.099Z,48.63
2022-12-16T11:29:36.480Z,51.78
2022-12-16T11:32:30.973Z,58.33
2022-12-16T11:35:19.210Z,57.83
2022-12-16T11:38:05.751Z,57.17
2022-12-16T11:40:52.303Z,54.17
2022-12-16T11:43:39.101Z,57.63
2022-12-16T11:46:29.943Z,60.70
2022-12-16T11:49:25.277Z,56.58
2022-12-16T11:56:04.889Z,58.38
2022-12-16T11:58:59.417Z,54.67
2022-12-16T12:01:55.372Z,51.58
2022-12-16T12:04:41.690Z,54.78
2022-12-16T12:07:57.368Z,53.85
2022-12-16T12:10:52.041Z,60.50
2022-12-16T12:13:57.910Z,53.65
2022-12-16T12:17:07.598Z,54.72
2022-12-16T12:20:20.117Z,55.15
2022-12-16T12:23:05.533Z,59.78
2022-12-16T12:26:10.910Z,63.38
2022-12-16T12:29:17.740Z,55.67
2022-12-16T12:32:29.385Z,50.13
2022-12-16T12:35:58.557Z,50.42
2022-12-16T12:39:32.609Z,48.50
2022-12-16T12:42:43.107Z,49.53
2022-12-16T12:45:48.739Z,53.97
2022-12-16T12:49:03.913Z,59.20
2022-12-16T12:52:18.171Z,51.88
2022-12-16T12:55:12.084Z,55.50
2022-12-16T12:58:02.501Z,60.63
2022-12-16T13:00:51.059Z,58.17
2022-12-16T13:04:03.970Z,55.05
2022-12-16T13:06:50.203Z,55.58
2022-12-16T13:09:54.545Z,50.00
2022-12-16T13:12:42.072Z,52.53
2022-12-16T13:15:49.098Z,58.28
2022-12-16T13:18:49.081Z,65.60
2022-12-16T13:21:57.059Z,60.22
2022-12-16T13:24:45.215Z,55.72
2022-12-16T13:27:33.745Z,55.03
2022-12-16T13:30:30.743Z,56.92
2022-12-16T13:33:23.672Z,53.20
2022-12-16T13:36:17.537Z,50.47
2022-12-16T13:39:08.106Z,51.58
2022-12-16T13:41:53.356Z,49.83
2022-12-16T13:47:59.981Z,45.08
2022-12-16T13:51:00.017Z,45.28
2022-12-16T13:53:52.532Z,51.10
2022-12-16T13:56:44.726Z,53.60
2022-12-16T13:59:41.261Z,58.72
2022-12-16T14:02:50.719Z,51.55
2022-12-16T14:05:46.732Z,48.13
2022-12-16T14:08:43.202Z,53.95
2022-12-16T14:11:53.138Z,59.65
2022-12-16T14:15:01.698Z,73.38
2022-12-16T14:17:58.657Z,60.45
2022-12-16T14:21:09.365Z,47.65
2022-12-16T14:24:06.886Z,60.00
2022-12-16T14:26:56.015Z,135.38
2022-12-16T14:29:46.022Z,65.78
2022-12-16T14:32:52.742Z,69.00
2022-12-16T14:35:43.974Z,74.25
2022-12-16T14:38:42.638Z,76.18
2022-12-16T14:41:33.116Z,73.72
2022-12-16T14:44:18.735Z,67.35
2022-12-16T14:47:11.658Z,63.25
2022-12-16T14:50:11.276Z,65.82
2022-12-16T14:52:58.099Z,61.20
2022-12-16T14:55:52.301Z,61.67
2022-12-16T14:58:39.960Z,67.65
2022-12-16T15:01:33.627Z,68.22
2022-12-16T15:04:21.890Z,106.82
2022-12-16T15:07:10.622Z,83.40
2022-12-16T15:10:03.171Z,72.88
2022-12-16T15:12:53.910Z,56.78
2022-12-16T15:15:52.880Z,53.47
2022-12-16T15:18:51.188Z,55.22
2022-12-16T15:21:36.868Z,59.95
2022-12-16T15:24:45.395Z,52.70
2022-12-16T15:27:39.890Z,80.85
2022-12-16T15:30:54.131Z,73.40
2022-12-16T15:34:00.359Z,54.60
2022-12-16T15:36:51.264Z,77.07
2022-12-16T15:39:54.272Z,58.72
2022-12-16T15:42:45.750Z,50.63
2022-12-16T15:45:44.903Z,53.40
2022-12-16T15:48:31.842Z,62.40
2022-12-16T15:51:17.183Z,58.55
2022-12-16T15:54:02.623Z,61.75
2022-12-16T15:57:03.415Z,61.55
2022-12-16T15:59:54.803Z,65.22
2022-12-16T16:02:46.238Z,73.78
2022-12-16T16:05:41.726Z,67.07
2022-12-16T16:08:29.718Z,71.20
2022-12-16T16:11:15.508Z,67.65
2022-12-16T16:14:06.196Z,76.45
2022-12-16T16:16:52.615Z,68.32
2022-12-16T16:19:44.552Z,73.43
2022-12-16T16:22:31.868Z,53.97
2022-12-16T16:25:17.169Z,73.47
2022-12-16T16:28:02.816Z,65.95
2022-12-16T16:30:48.559Z,65.50
2022-12-16T16:33:34.286Z,59.05
2022-12-16T16:36:19.759Z,66.35
2022-12-16T16:39:05.019Z,56.33
2022-12-16T16:41:50.192Z,45.22
2022-12-16T16:44:35.679Z,44.05
2022-12-16T16:47:20.950Z,66.25
2022-12-16T16:50:06.494Z,65.57
2022-12-16T16:52:51.654Z,62.95
2022-12-16T16:55:39.875Z,59.40
2022-12-16T16:58:58.511Z,31.05
2022-12-16T17:01:43.863Z,31.25
2022-12-16T17:04:49.034Z,28.65
2022-12-16T17:07:34.367Z,33.05
2022-12-16T17:10:19.964Z,31.98
2022-12-16T17:13:05.247Z,31.92
2022-12-16T17:15:54.780Z,33.58
2022-12-16T17:18:45.700Z,30.17
2022-12-16T17:21:32.258Z,34.65
2022-12-16T17:24:17.495Z,35.83
2022-12-16T17:27:03.137Z,31.25
2022-12-16T17:29:48.802Z,35.22
2022-12-16T17:32:34.097Z,38.33
2022-12-16T17:35:19.468Z,37.05
2022-12-16T17:38:04.730Z,38.42
2022-12-16T17:40:50.156Z,43.00
2022-12-16T17:43:35.919Z,47.60
2022-12-16T17:46:26.542Z,51.33
2022-12-16T17:49:15.857Z,49.30
2022-12-16T17:52:02.198Z,54.47
2022-12-16T17:54:47.693Z,51.22
2022-12-16T17:57:32.881Z,126.32
2022-12-16T18:00:28.563Z,108.88
2022-12-16T18:03:14.330Z,124.18
2022-12-16T18:05:59.797Z,101.15
2022-12-16T18:08:45.425Z,55.90
2022-12-16T18:11:32.564Z,50.65
2022-12-16T18:14:21.399Z,37.97
2022-12-16T18:17:06.764Z,36.40
2022-12-16T18:19:51.744Z,44.25
2022-12-16T18:25:22.667Z,41.92
2022-12-16T18:28:07.900Z,34.45
2022-12-16T18:30:55.139Z,52.33
2022-12-16T18:33:40.257Z,55.20
2022-12-16T18:36:25.843Z,75.50
2022-12-16T18:39:11.181Z,55.95
2022-12-16T18:42:01.561Z,53.78
2022-12-16T18:44:47.147Z,52.90
2022-12-16T18:47:32.417Z,57.58
2022-12-16T18:50:20.103Z,48.67
2022-12-16T18:53:09.089Z,55.55
2022-12-16T18:55:55.020Z,49.78
2022-12-16T18:58:51.206Z,55.58
2022-12-16T19:01:37.678Z,65.90
2022-12-16T19:04:22.964Z,71.72
2022-12-16T19:07:08.196Z,79.25
2022-12-16T19:09:53.892Z,77.90
2022-12-16T19:12:39.208Z,77.60
2022-12-16T19:15:24.795Z,84.78
2022-12-16T19:18:11.069Z,96.07
2022-12-16T19:20:56.761Z,109.45
2022-12-16T19:23:42.031Z,89.45
2022-12-16T19:26:27.170Z,102.93
2022-12-16T19:29:12.738Z,70.93
2022-12-16T19:31:58.029Z,77.07
2022-12-16T19:34:43.622Z,76.43
2022-12-16T19:37:28.822Z,65.18
2022-12-16T19:40:14.079Z,78.55
2022-12-16T19:42:59.420Z,67.30
2022-12-16T19:45:45.064Z,68.20
2022-12-16T19:48:30.461Z,67.35
2022-12-16T19:51:20.299Z,60.78
2022-12-16T19:54:06.758Z,51.10
2022-12-16T19:56:52.533Z,62.30
2022-12-16T19:59:40.723Z,61.83
2022-12-16T20:02:29.121Z,60.50
2022-12-16T20:05:14.747Z,58.40
2022-12-16T20:08:00.194Z,50.63
2022-12-16T20:10:45.485Z,53.83
2022-12-16T20:13:31.182Z,53.45
2022-12-16T20:16:24.692Z,67.38
2022-12-16T20:19:10.061Z,58.78
2022-12-16T20:21:56.322Z,52.10
2022-12-16T20:24:41.914Z,47.47
2022-12-16T20:27:27.095Z,60.28
2022-12-16T20:30:12.603Z,62.40
2022-12-16T20:32:58.201Z,60.67
2022-12-16T20:35:43.321Z,80.80
2022-12-16T20:38:28.591Z,104.55
2022-12-16T20:41:15.415Z,70.95
2022-12-16T20:44:00.935Z,70.10
2022-12-16T20:46:47.146Z,59.35
2022-12-16T20:49:32.878Z,68.07
2022-12-16T20:52:18.182Z,90.88
2022-12-16T20:55:03.688Z,61.35
2022-12-16T20:57:49.158Z,41.80
2022-12-16T21:00:34.690Z,53.83
2022-12-16T21:03:19.972Z,76.80
2022-12-16T21:06:05.399Z,75.25
2022-12-16T21:08:51.025Z,81.47
2022-12-16T21:11:36.787Z,77.10
2022-12-16T21:14:22.251Z,73.20
2022-12-16T21:17:07.862Z,74.85
2022-12-16T21:19:53.226Z,74.63
2022-12-16T21:22:41.340Z,69.07
2022-12-16T21:25:27.206Z,70.30
2022-12-16T21:28:18.420Z,69.28
2022-12-16T21:31:04.179Z,61.60
2022-12-16T21:33:49.925Z,71.82
2022-12-16T21:36:35.587Z,67.82
2022-12-16T21:39:21.073Z,57.80
2022-12-16T21:42:06.067Z,58.55
2022-12-16T21:44:51.605Z,65.43
2022-12-16T21:47:37.059Z,54.45
2022-12-16T21:50:23.017Z,52.92
2022-12-16T21:53:08.356Z,54.70
2022-12-16T21:55:53.624Z,60.83
2022-12-16T21:58:38.773Z,33.22
2022-12-16T22:01:24.103Z,38.30
2022-12-16T22:04:09.352Z,38.33
2022-12-16T22:06:54.701Z,45.25
2022-12-16T22:09:40.414Z,30.23
2022-12-16T22:12:25.659Z,41.70
2022-12-16T22:15:11.154Z,30.02
2022-12-16T22:17:58.578Z,25.48
2022-12-16T22:20:44.686Z,24.88
2022-12-16T22:23:30.190Z,33.85
2022-12-16T22:26:17.078Z,36.75
2022-12-16T22:29:02.323Z,42.92
2022-12-16T22:31:47.653Z,38.35
2022-12-16T22:34:33.721Z,49.33
2022-12-16T22:37:18.989Z,40.97
2022-12-16T22:40:04.475Z,59.55
2022-12-16T22:42:49.757Z,59.33
2022-12-16T22:45:35.426Z,60.47
2022-12-16T22:48:20.865Z,62.45
2022-12-16T22:51:06.134Z,52.30
2022-12-16T22:53:51.462Z,47.33
2022-12-16T22:56:37.189Z,47.30
2022-12-16T22:59:30.021Z,43.45
2022-12-16T23:02:15.446Z,44.88
2022-12-16T23:05:01.053Z,64.82
2022-12-16T23:07:46.346Z,54.78
2022-12-16T23:10:31.825Z,33.50
2022-12-16T23:13:17.223Z,37.20
2022-12-16T23:16:02.713Z,31.30
2022-12-16T23:18:48.189Z,32.83
2022-12-16T23:21:35.250Z,43.97
2022-12-16T23:24:25.087Z,33.15
2022-12-16T23:27:10.399Z,33.88
2022-12-16T23:29:56.661Z,25.83
2022-12-16T23:32:43.499Z,25.77
2022-12-16T23:35:29.157Z,29.63
2022-12-16T23:38:25.624Z,27.23
2022-12-16T23:41:17.322Z,26.08
2022-12-16T23:44:02.955Z,35.65
2022-12-16T23:46:48.752Z,40.90
2022-12-16T23:49:34.035Z,36.58
2022-12-16T23:52:19.199Z,40.90
2022-12-16T23:55:04.410Z,39.83
2022-12-16T23:57:49.584Z,31.10
